Whitewater Creek, Colorado (Grand Mesa) Weather observations

Data are for observation ending at time listed.
 Day   Time    Ave.   Ave.  Ave.  Vector   Max.    Total    Solar   Ave.  
  of    of     Air    Rel.  Wind   Wind    Wind   Precip.   Rad.    Soil  
Year   Day     Temp.  Hum.  Speed  Dir.    Gust                     Temp. 
2014   (MST)    F      %     mph   deg.    mph      in.     W/m2     F   
------------------------------------------------------------------------------
 202   12:40   66.3    27   14.1   220     24.0    99999.00   99999    99999.0
 202   12:50   66.8    26   18.4   206     26.6    99999.00   99999    99999.0
 202   13:00   66.8    26   17.3   202     25.3    99999.00   99999    99999.0
 202   13:10   67.7    26   16.0   217     27.8    99999.00   99999    99999.0
 202   13:20   67.7    26   18.2   197     30.4    99999.00   99999    99999.0
 202   13:30   68.3    25   17.0   220     30.4    99999.00   99999    99999.0
 202   13:40   67.9    25   17.4   219     26.6    99999.00   99999    99999.0
 202   13:50   68.7    25   16.2   224     25.3    99999.00   99999    99999.0
 202   14:00   68.5    25   13.3   206     21.4    99999.00   99999    99999.0
 202   14:10   68.9    25   13.3   214     24.0    99999.00   99999    99999.0
 202   14:20   69.0    24   16.0   211     24.0    99999.00   99999    99999.0
 202   14:30   69.0    24   12.6   211     31.7    99999.00   99999    99999.0
 202   14:40   69.0    24   15.1   214     25.3    99999.00   99999    99999.0
 202   14:50   69.0    23   14.4   216     26.6    99999.00   99999    99999.0
 202   15:00   69.3    23   14.3   215     25.3    99999.00   99999    99999.0
 202   15:10   69.7    22   12.9   204     26.6    99999.00   99999    99999.0
 202   15:20   69.9    22   10.9   203     22.7    99999.00   99999    99999.0
 202   15:30   69.6    22   15.1   202     22.7    99999.00   99999    99999.0
 202   15:40   68.7    23    9.5   216     16.3    99999.00   99999    99999.0
 202   15:50   68.1    24    9.6   192     15.0    99999.00   99999    99999.0
 202   16:00   69.2    22   12.6   198     21.4    99999.00   99999    99999.0
 202   16:10   69.9    22   14.9   178     24.0    99999.00   99999    99999.0
 202   16:20   70.5    23   10.1   238     17.6    99999.00   99999    99999.0
 202   16:30   70.5    22    6.1   289      9.9    99999.00   99999    99999.0
 202   16:40   70.8    24    9.5   280     18.9    99999.00   99999    99999.0
 202   16:50   69.7    24    7.8   319     12.5    99999.00   99999    99999.0
 202   17:00   69.6    24    8.3   296     13.8    99999.00   99999    99999.0
 202   17:10   70.2    23    7.0   269     12.5    99999.00   99999    99999.0
 202   17:20   69.7    23    8.9   281     13.8    99999.00   99999    99999.0
 202   17:30   70.5    22    3.8   293      9.9    99999.00   99999    99999.0
 202   17:40   69.8    24    9.5   273     15.0    99999.00   99999    99999.0
 202   17:50   68.6    23    9.5   290     15.0    99999.00   99999    99999.0
 202   18:00   69.0    22    6.5   293     11.2    99999.00   99999    99999.0
 202   18:10   68.2    23    8.5   287     11.2    99999.00   99999    99999.0
 202   18:20   68.2    22    5.5   305      8.6    99999.00   99999    99999.0
 202   18:30   68.1    22    5.9   290      8.6    99999.00   99999    99999.0
 202   18:40   67.4    22    5.5   283      8.6    99999.00   99999    99999.0
 202   18:50   66.5    22    6.3   292      9.9    99999.00   99999    99999.0
 202   19:00   65.6    21    7.3   292      9.9    99999.00   99999    99999.0
 202   19:10   64.5    21    8.3   289      9.9    99999.00   99999    99999.0
 202   19:20   64.0    20    7.7   292      9.9    99999.00   99999    99999.0
 202   19:30   62.9    20    7.1   289      8.6    99999.00   99999    99999.0
 202   19:40   62.5    20    6.1   296      8.6    99999.00   99999    99999.0
 202   19:50   60.3    24    3.3   296      4.8    99999.00   99999    99999.0
 202   20:00   57.6    27    2.2   307      2.2    99999.00   99999    99999.0
 202   20:10   57.1    26    2.2   321      2.2    99999.00   99999    99999.0
 202   20:20   57.3    25    2.8   312      6.1    99999.00   99999    99999.0
 202   20:30   58.4    21    2.2   298      2.2    99999.00   99999    99999.0
 202   20:40   62.0    16    2.2   305      2.2    99999.00   99999    99999.0
 202   20:50   62.7    15    2.2   295      2.2    99999.00   99999    99999.0
 202   21:00   61.7    17    2.2   293      2.2    99999.00   99999    99999.0
 202   21:10   62.3    16    2.2   292      2.2    99999.00   99999    99999.0
 202   21:20   61.1    17    2.2   294      2.2    99999.00   99999    99999.0
 202   21:30   57.0    23    2.2   297      2.2    99999.00   99999    99999.0
 202   21:40   54.4    26    2.2   298      2.2    99999.00   99999    99999.0
 202   21:50   53.9    26    2.2   298      2.2    99999.00   99999    99999.0
 202   22:00   53.5    26    2.2   286      2.2    99999.00   99999    99999.0
 202   22:10   52.3    28    2.2   283      2.2    99999.00   99999    99999.0
 202   22:20   51.7    28    2.2   283      2.2    99999.00   99999    99999.0
 202   22:30   51.3    28    2.2   283      2.2    99999.00   99999    99999.0
 202   22:40   51.4    28    2.2   283      2.2    99999.00   99999    99999.0
 202   22:50   51.1    29    2.2   283      2.2    99999.00   99999    99999.0
 202   23:00   50.6    29    2.2   283      2.2    99999.00   99999    99999.0
 202   23:10   50.4    29    2.2   283      2.2    99999.00   99999    99999.0
 202   23:20   54.2    24    2.2   283      2.2    99999.00   99999    99999.0
 202   23:30   58.2    20    5.4   286      9.9    99999.00   99999    99999.0
 202   23:40   59.3    19    8.1   287     11.2    99999.00   99999    99999.0
 202   23:50   59.8    18    8.3   284      9.9    99999.00   99999    99999.0
 203    0:00   59.5    19    7.3   284      9.9    99999.00   99999    99999.0
 203    0:10   57.5    21    5.8   283      8.6    99999.00   99999    99999.0
 203    0:20   53.5    26    3.5   267      6.1    99999.00   99999    99999.0
 203    0:30   53.0    26    2.2   263      2.2    99999.00   99999    99999.0
 203    0:40   51.5    29    2.2   257      2.2    99999.00   99999    99999.0
 203    0:50   52.4    30    2.2   255      2.2    99999.00   99999    99999.0
 203    1:00   51.2    31    2.2   255      2.2    99999.00   99999    99999.0
 203    1:10   49.8    34    2.2   255      2.2    99999.00   99999    99999.0
 203    1:20   49.4    33    2.2   255      2.2    99999.00   99999    99999.0
 203    1:30   49.3    33    2.2   255      2.2    99999.00   99999    99999.0
 203    1:40   49.7    30    2.2   255      2.2    99999.00   99999    99999.0
 203    1:50   49.4    31    2.2   255      2.2    99999.00   99999    99999.0
 203    2:00   50.1    30    2.2   255      2.2    99999.00   99999    99999.0
 203    2:10   49.5    31    2.2   255      2.2    99999.00   99999    99999.0
 203    2:20   49.1    32    2.2   255      2.2    99999.00   99999    99999.0
 203    2:30   47.5    34    2.2   256      2.2    99999.00   99999    99999.0
 203    2:40   47.0    34    2.2   256      2.2    99999.00   99999    99999.0
 203    2:50   46.7    34    2.2   256      2.2    99999.00   99999    99999.0
 203    3:00   47.8    32    2.2   256      2.2    99999.00   99999    99999.0
 203    3:10   48.8    31    2.2   256      2.2    99999.00   99999    99999.0
 203    3:20   49.0    31    2.2   256      2.2    99999.00   99999    99999.0
 203    3:30   48.7    31    2.2   256      2.2    99999.00   99999    99999.0
 203    3:40   48.4    32    2.2   256      2.2    99999.00   99999    99999.0
 203    3:50   49.1    31    2.2   256      2.2    99999.00   99999    99999.0
 203    4:00   49.0    32    2.2   256      2.2    99999.00   99999    99999.0
 203    4:10   49.0    32    2.2   256      2.2    99999.00   99999    99999.0
 203    4:20   47.8    34    2.2   256      2.2    99999.00   99999    99999.0
 203    4:30   47.6    36    2.2   256      2.2    99999.00   99999    99999.0
 203    4:40   47.8    35    2.2   256      2.2    99999.00   99999    99999.0
 203    4:50   48.0    35    2.2   256      2.2    99999.00   99999    99999.0
 203    5:00   48.1    34    2.2   256      2.2    99999.00   99999    99999.0
 203    5:10   48.9    33    2.2   256      2.2    99999.00   99999    99999.0
 203    5:20   49.1    32    2.2   256      2.2    99999.00   99999    99999.0
 203    5:30   51.6    30    2.2   256      2.2    99999.00   99999    99999.0
 203    5:40   53.6    28    2.2   256      2.2    99999.00   99999    99999.0
 203    5:50   53.1    30    2.2   260      2.2    99999.00   99999    99999.0
 203    6:00   54.6    29    2.2   270      2.2    99999.00   99999    99999.0
 203    6:10   56.5    31    2.2   270      2.2    99999.00   99999    99999.0
 203    6:20   60.5    30    2.2   270      2.2    99999.00   99999    99999.0
 203    6:30   60.9    33    2.2   270      2.2    99999.00   99999    99999.0
 203    6:40   62.1    32    2.2   270      2.2    99999.00   99999    99999.0
 203    6:50   63.5    32    2.2   270      2.2    99999.00   99999    99999.0
 203    7:00   64.2    30    2.2   270      2.2    99999.00   99999    99999.0
 203    7:10   66.2    27    2.2   270      2.2    99999.00   99999    99999.0
 203    7:20   66.8    23    2.2   270      2.2    99999.00   99999    99999.0
 203    7:30   66.8    22    2.9   260      6.1    99999.00   99999    99999.0
 203    7:40   66.5    20    2.3   247      4.8    99999.00   99999    99999.0
 203    7:50   67.0    20    2.4   266      6.1    99999.00   99999    99999.0
 203    8:00   67.5    20    2.3   321      4.8    99999.00   99999    99999.0
 203    8:10   67.3    20    2.2   294      2.2    99999.00   99999    99999.0
 203    8:20   68.0    18    2.2   252      2.2    99999.00   99999    99999.0
 203    8:30   69.0    18    2.2   210      2.2    99999.00   99999    99999.0
 203    8:40   69.2    18    3.4   192      6.1    99999.00   99999    99999.0
 203    8:50   69.5    16    2.3   192      4.8    99999.00   99999    99999.0
 203    9:00   68.7    18    2.3   191      4.8    99999.00   99999    99999.0
 203    9:10   68.9    19    2.2   201      2.2    99999.00   99999    99999.0
 203    9:20   68.9    22    2.5    28      7.4    99999.00   99999    99999.0
 203    9:30   69.3    22    3.2    62      7.4    99999.00   99999    99999.0
 203    9:40   69.3    22    5.5    11      9.9    99999.00   99999    99999.0
 203    9:50   68.1    23    5.3    13     11.2    99999.00   99999    99999.0
 203   10:00   69.4    22    3.5   262     11.2    99999.00   99999    99999.0
 203   10:10   68.8    21    8.1   216     13.8    99999.00   99999    99999.0
 203   10:20   68.7    21    6.6   228     11.2    99999.00   99999    99999.0
 203   10:30   69.0    20    7.1   228     15.0    99999.00   99999    99999.0
 203   10:40   69.6    19    6.5   237     16.3    99999.00   99999    99999.0
 203   10:50   69.1    21    7.5   239     12.5    99999.00   99999    99999.0
 203   11:00   69.9    20    5.1   223     12.5    99999.00   99999    99999.0
 203   11:10   70.4    20    3.1   205      7.4    99999.00   99999    99999.0
 203   11:20   70.5    22    3.8   270      8.6    99999.00   99999    99999.0
 203   11:30   69.6    23    7.2   279     12.5    99999.00   99999    99999.0
 203   11:40   70.2    21    6.2   229     12.5    99999.00   99999    99999.0
 203   11:50   70.4    21    3.9   255     12.5    99999.00   99999    99999.0
 203   12:00   71.0    23    4.5    61      9.9    99999.00   99999    99999.0
 203   12:10   70.3    23    6.4    72      9.9    99999.00   99999    99999.0
 203   12:20   71.1    23    4.0    94      8.6    99999.00   99999    99999.0
 203   12:30   71.6    22    5.8    75     11.2    99999.00   99999    99999.0

Return to Whitewater Creek, Colorado graphs page.


Western Regional Climate Center,wrcc@dri.edu